sensor_id;sensor_type;location;lat;lon;timestamp;P1;durP1;ratioP1;P2;durP2;ratioP2
60494;SDS011;46342;49.046;11.920;2023-02-28T00:00:00;4.70;;;2.85;;
60494;SDS011;46342;49.046;11.920;2023-02-28T00:02:27;2.90;;;2.25;;
60494;SDS011;46342;49.046;11.920;2023-02-28T00:04:52;3.63;;;2.38;;
60494;SDS011;46342;49.046;11.920;2023-02-28T00:07:25;3.08;;;2.08;;
60494;SDS011;46342;49.046;11.920;2023-02-28T00:09:52;3.13;;;2.05;;
60494;SDS011;46342;49.046;11.920;2023-02-28T00:12:18;2.80;;;2.33;;
60494;SDS011;46342;49.046;11.920;2023-02-28T00:14:43;2.83;;;2.20;;
60494;SDS011;46342;49.046;11.920;2023-02-28T00:17:09;3.28;;;2.10;;
60494;SDS011;46342;49.046;11.920;2023-02-28T00:19:34;3.15;;;2.53;;
60494;SDS011;46342;49.046;11.920;2023-02-28T00:22:00;3.97;;;2.60;;
60494;SDS011;46342;49.046;11.920;2023-02-28T00:24:25;4.20;;;2.67;;
60494;SDS011;46342;49.046;11.920;2023-02-28T00:26:51;2.65;;;2.08;;
60494;SDS011;46342;49.046;11.920;2023-02-28T00:29:16;4.18;;;2.25;;
60494;SDS011;46342;49.046;11.920;2023-02-28T00:31:42;2.47;;;1.95;;
60494;SDS011;46342;49.046;11.920;2023-02-28T00:34:08;3.22;;;2.20;;
60494;SDS011;46342;49.046;11.920;2023-02-28T00:36:33;4.03;;;2.15;;
60494;SDS011;46342;49.046;11.920;2023-02-28T00:38:59;2.95;;;1.88;;
60494;SDS011;46342;49.046;11.920;2023-02-28T00:41:24;2.85;;;1.83;;
60494;SDS011;46342;49.046;11.920;2023-02-28T00:43:50;3.22;;;2.50;;
60494;SDS011;46342;49.046;11.920;2023-02-28T00:46:15;4.57;;;2.13;;
60494;SDS011;46342;49.046;11.920;2023-02-28T00:48:41;3.35;;;2.15;;
60494;SDS011;46342;49.046;11.920;2023-02-28T00:51:06;3.40;;;2.13;;
60494;SDS011;46342;49.046;11.920;2023-02-28T00:53:32;2.75;;;1.80;;
60494;SDS011;46342;49.046;11.920;2023-02-28T00:55:57;3.15;;;1.85;;
60494;SDS011;46342;49.046;11.920;2023-02-28T00:58:23;3.38;;;2.33;;
60494;SDS011;46342;49.046;11.920;2023-02-28T01:00:50;5.70;;;2.80;;
60494;SDS011;46342;49.046;11.920;2023-02-28T01:03:17;3.97;;;1.77;;
60494;SDS011;46342;49.046;11.920;2023-02-28T01:05:44;2.60;;;1.92;;
60494;SDS011;46342;49.046;11.920;2023-02-28T01:08:10;2.88;;;2.40;;
60494;SDS011;46342;49.046;11.920;2023-02-28T01:10:35;2.45;;;2.03;;
60494;SDS011;46342;49.046;11.920;2023-02-28T01:13:01;3.17;;;2.10;;
60494;SDS011;46342;49.046;11.920;2023-02-28T01:15:28;2.90;;;2.10;;
60494;SDS011;46342;49.046;11.920;2023-02-28T01:17:53;2.10;;;1.90;;
60494;SDS011;46342;49.046;11.920;2023-02-28T01:20:19;4.47;;;2.50;;
60494;SDS011;46342;49.046;11.920;2023-02-28T01:22:44;3.15;;;2.25;;
60494;SDS011;46342;49.046;11.920;2023-02-28T01:25:11;3.15;;;2.10;;
60494;SDS011;46342;49.046;11.920;2023-02-28T01:27:37;3.03;;;2.00;;
60494;SDS011;46342;49.046;11.920;2023-02-28T01:30:04;2.97;;;2.42;;
60494;SDS011;46342;49.046;11.920;2023-02-28T01:32:31;4.32;;;2.08;;
60494;SDS011;46342;49.046;11.920;2023-02-28T01:34:56;4.28;;;2.50;;
60494;SDS011;46342;49.046;11.920;2023-02-28T01:37:22;4.40;;;2.60;;
60494;SDS011;46342;49.046;11.920;2023-02-28T01:39:47;4.00;;;2.72;;
60494;SDS011;46342;49.046;11.920;2023-02-28T01:42:13;2.65;;;1.92;;
60494;SDS011;46342;49.046;11.920;2023-02-28T01:47:30;3.17;;;2.15;;
60494;SDS011;46342;49.046;11.920;2023-02-28T01:49:59;3.90;;;2.50;;
60494;SDS011;46342;49.046;11.920;2023-02-28T01:52:28;3.55;;;2.63;;
60494;SDS011;46342;49.046;11.920;2023-02-28T01:54:56;2.85;;;2.00;;
60494;SDS011;46342;49.046;11.920;2023-02-28T01:57:25;3.45;;;2.40;;
60494;SDS011;46342;49.046;11.920;2023-02-28T02:02:32;5.75;;;3.00;;
60494;SDS011;46342;49.046;11.920;2023-02-28T02:05:00;3.08;;;2.33;;
60494;SDS011;46342;49.046;11.920;2023-02-28T02:07:31;3.63;;;2.10;;
60494;SDS011;46342;49.046;11.920;2023-02-28T02:10:00;3.78;;;2.50;;
60494;SDS011;46342;49.046;11.920;2023-02-28T02:29:37;3.42;;;2.42;;
60494;SDS011;46342;49.046;11.920;2023-02-28T02:32:35;3.20;;;2.17;;
60494;SDS011;46342;49.046;11.920;2023-02-28T02:35:52;2.90;;;2.10;;
60494;SDS011;46342;49.046;11.920;2023-02-28T02:41:17;2.28;;;1.58;;
60494;SDS011;46342;49.046;11.920;2023-02-28T02:46:47;1.98;;;1.77;;
60494;SDS011;46342;49.046;11.920;2023-02-28T02:49:20;2.88;;;1.85;;
60494;SDS011;46342;49.046;11.920;2023-02-28T02:51:49;3.65;;;1.98;;
60494;SDS011;46342;49.046;11.920;2023-02-28T02:54:17;3.53;;;1.98;;
60494;SDS011;46342;49.046;11.920;2023-02-28T02:56:48;2.97;;;1.90;;
60494;SDS011;46342;49.046;11.920;2023-02-28T02:59:16;2.75;;;1.90;;
60494;SDS011;46342;49.046;11.920;2023-02-28T03:01:46;3.55;;;2.28;;
60494;SDS011;46342;49.046;11.920;2023-02-28T03:04:19;4.00;;;2.38;;
60494;SDS011;46342;49.046;11.920;2023-02-28T03:06:47;4.40;;;2.28;;
60494;SDS011;46342;49.046;11.920;2023-02-28T03:09:14;2.47;;;1.88;;
60494;SDS011;46342;49.046;11.920;2023-02-28T03:11:40;2.40;;;2.10;;
60494;SDS011;46342;49.046;11.920;2023-02-28T03:28:23;3.78;;;2.13;;
60494;SDS011;46342;49.046;11.920;2023-02-28T03:33:38;5.10;;;2.53;;
60494;SDS011;46342;49.046;11.920;2023-02-28T03:36:10;4.32;;;2.55;;
60494;SDS011;46342;49.046;11.920;2023-02-28T03:38:41;3.00;;;2.40;;
60494;SDS011;46342;49.046;11.920;2023-02-28T03:41:38;3.88;;;2.22;;
60494;SDS011;46342;49.046;11.920;2023-02-28T03:44:16;3.22;;;1.92;;
60494;SDS011;46342;49.046;11.920;2023-02-28T03:46:48;3.70;;;2.40;;
60494;SDS011;46342;49.046;11.920;2023-02-28T03:49:45;3.50;;;2.35;;
60494;SDS011;46342;49.046;11.920;2023-02-28T03:52:14;4.63;;;2.50;;
60494;SDS011;46342;49.046;11.920;2023-02-28T03:54:44;3.45;;;2.42;;
60494;SDS011;46342;49.046;11.920;2023-02-28T04:02:53;4.15;;;2.55;;
60494;SDS011;46342;49.046;11.920;2023-02-28T04:05:19;3.65;;;2.65;;
60494;SDS011;46342;49.046;11.920;2023-02-28T04:07:46;2.85;;;2.13;;
60494;SDS011;46342;49.046;11.920;2023-02-28T04:10:12;4.65;;;3.20;;
60494;SDS011;46342;49.046;11.920;2023-02-28T04:12:38;2.72;;;2.28;;
60494;SDS011;46342;49.046;11.920;2023-02-28T04:15:04;3.63;;;2.50;;
60494;SDS011;46342;49.046;11.920;2023-02-28T04:17:30;3.97;;;2.75;;
60494;SDS011;46342;49.046;11.920;2023-02-28T04:19:55;3.70;;;2.70;;
60494;SDS011;46342;49.046;11.920;2023-02-28T04:22:22;3.35;;;2.47;;
60494;SDS011;46342;49.046;11.920;2023-02-28T04:24:50;3.30;;;2.20;;
60494;SDS011;46342;49.046;11.920;2023-02-28T04:27:16;4.15;;;2.92;;
60494;SDS011;46342;49.046;11.920;2023-02-28T04:29:41;3.70;;;2.53;;
60494;SDS011;46342;49.046;11.920;2023-02-28T04:32:09;3.78;;;2.10;;
60494;SDS011;46342;49.046;11.920;2023-02-28T04:34:35;4.07;;;3.17;;
60494;SDS011;46342;49.046;11.920;2023-02-28T04:37:01;3.05;;;2.22;;
60494;SDS011;46342;49.046;11.920;2023-02-28T04:39:28;3.50;;;2.53;;
60494;SDS011;46342;49.046;11.920;2023-02-28T04:41:55;3.38;;;2.30;;
60494;SDS011;46342;49.046;11.920;2023-02-28T04:44:21;4.43;;;2.58;;
60494;SDS011;46342;49.046;11.920;2023-02-28T04:46:47;3.55;;;2.33;;
60494;SDS011;46342;49.046;11.920;2023-02-28T04:49:13;6.38;;;2.63;;
60494;SDS011;46342;49.046;11.920;2023-02-28T04:51:40;2.80;;;2.50;;
60494;SDS011;46342;49.046;11.920;2023-02-28T04:54:06;4.32;;;2.65;;
60494;SDS011;46342;49.046;11.920;2023-02-28T04:56:32;5.28;;;2.47;;
60494;SDS011;46342;49.046;11.920;2023-02-28T04:58:58;3.67;;;2.45;;
60494;SDS011;46342;49.046;11.920;2023-02-28T05:01:24;5.05;;;2.70;;
60494;SDS011;46342;49.046;11.920;2023-02-28T05:03:56;3.35;;;2.53;;
60494;SDS011;46342;49.046;11.920;2023-02-28T05:06:24;3.00;;;2.20;;
60494;SDS011;46342;49.046;11.920;2023-02-28T05:08:51;4.13;;;2.50;;
60494;SDS011;46342;49.046;11.920;2023-02-28T05:11:19;4.32;;;2.67;;
60494;SDS011;46342;49.046;11.920;2023-02-28T05:13:50;4.07;;;2.55;;
60494;SDS011;46342;49.046;11.920;2023-02-28T05:16:17;4.85;;;3.10;;
60494;SDS011;46342;49.046;11.920;2023-02-28T05:18:43;3.75;;;2.28;;
60494;SDS011;46342;49.046;11.920;2023-02-28T05:21:29;4.55;;;2.88;;
60494;SDS011;46342;49.046;11.920;2023-02-28T05:23:57;4.85;;;2.63;;
60494;SDS011;46342;49.046;11.920;2023-02-28T05:26:25;3.80;;;2.45;;
60494;SDS011;46342;49.046;11.920;2023-02-28T05:28:51;3.88;;;2.90;;
60494;SDS011;46342;49.046;11.920;2023-02-28T05:31:17;5.10;;;3.00;;
60494;SDS011;46342;49.046;11.920;2023-02-28T05:33:43;4.32;;;2.80;;
60494;SDS011;46342;49.046;11.920;2023-02-28T05:36:08;4.80;;;2.70;;
60494;SDS011;46342;49.046;11.920;2023-02-28T05:38:34;4.78;;;2.90;;
60494;SDS011;46342;49.046;11.920;2023-02-28T05:40:59;5.68;;;3.25;;
60494;SDS011;46342;49.046;11.920;2023-02-28T05:43:25;5.07;;;3.40;;
60494;SDS011;46342;49.046;11.920;2023-02-28T05:45:50;5.03;;;3.00;;
60494;SDS011;46342;49.046;11.920;2023-02-28T05:48:16;3.13;;;2.45;;
60494;SDS011;46342;49.046;11.920;2023-02-28T05:50:43;4.75;;;3.00;;
60494;SDS011;46342;49.046;11.920;2023-02-28T05:53:09;5.50;;;3.53;;
60494;SDS011;46342;49.046;11.920;2023-02-28T05:55:35;4.50;;;2.78;;
60494;SDS011;46342;49.046;11.920;2023-02-28T05:58:02;6.03;;;3.17;;
60494;SDS011;46342;49.046;11.920;2023-02-28T06:00:27;5.22;;;3.65;;
60494;SDS011;46342;49.046;11.920;2023-02-28T06:02:53;3.88;;;3.00;;
60494;SDS011;46342;49.046;11.920;2023-02-28T06:05:21;4.00;;;2.50;;
60494;SDS011;46342;49.046;11.920;2023-02-28T06:07:47;5.57;;;3.63;;
60494;SDS011;46342;49.046;11.920;2023-02-28T06:10:13;6.63;;;4.05;;
60494;SDS011;46342;49.046;11.920;2023-02-28T06:12:39;5.78;;;3.22;;
60494;SDS011;46342;49.046;11.920;2023-02-28T06:15:06;4.88;;;3.58;;
60494;SDS011;46342;49.046;11.920;2023-02-28T06:17:33;4.35;;;3.20;;
60494;SDS011;46342;49.046;11.920;2023-02-28T06:19:58;4.03;;;3.05;;
60494;SDS011;46342;49.046;11.920;2023-02-28T06:22:24;6.32;;;3.50;;
60494;SDS011;46342;49.046;11.920;2023-02-28T06:24:49;5.63;;;3.50;;
60494;SDS011;46342;49.046;11.920;2023-02-28T06:27:15;4.28;;;3.13;;
60494;SDS011;46342;49.046;11.920;2023-02-28T06:29:41;5.03;;;3.17;;
60494;SDS011;46342;49.046;11.920;2023-02-28T06:32:06;6.88;;;3.25;;
60494;SDS011;46342;49.046;11.920;2023-02-28T06:34:32;5.95;;;3.55;;
60494;SDS011;46342;49.046;11.920;2023-02-28T06:36:58;4.80;;;3.30;;
60494;SDS011;46342;49.046;11.920;2023-02-28T06:41:53;4.97;;;3.13;;
60494;SDS011;46342;49.046;11.920;2023-02-28T06:44:18;5.68;;;3.75;;
60494;SDS011;46342;49.046;11.920;2023-02-28T06:46:44;5.78;;;3.13;;
60494;SDS011;46342;49.046;11.920;2023-02-28T06:49:11;4.28;;;3.25;;
60494;SDS011;46342;49.046;11.920;2023-02-28T06:51:37;5.97;;;3.70;;
60494;SDS011;46342;49.046;11.920;2023-02-28T06:54:05;4.80;;;3.60;;
60494;SDS011;46342;49.046;11.920;2023-02-28T06:56:33;4.85;;;3.35;;
60494;SDS011;46342;49.046;11.920;2023-02-28T06:58:59;6.47;;;3.35;;
60494;SDS011;46342;49.046;11.920;2023-02-28T07:01:25;4.10;;;3.20;;
60494;SDS011;46342;49.046;11.920;2023-02-28T07:03:52;7.10;;;3.72;;
60494;SDS011;46342;49.046;11.920;2023-02-28T07:06:19;5.68;;;3.92;;
60494;SDS011;46342;49.046;11.920;2023-02-28T07:08:47;4.10;;;3.10;;
60494;SDS011;46342;49.046;11.920;2023-02-28T07:11:13;5.97;;;3.55;;
60494;SDS011;46342;49.046;11.920;2023-02-28T07:13:39;5.65;;;3.75;;
60494;SDS011;46342;49.046;11.920;2023-02-28T07:16:05;4.28;;;3.25;;
60494;SDS011;46342;49.046;11.920;2023-02-28T07:18:34;6.15;;;3.47;;
60494;SDS011;46342;49.046;11.920;2023-02-28T07:21:04;5.78;;;3.67;;
60494;SDS011;46342;49.046;11.920;2023-02-28T07:23:32;5.88;;;3.58;;
60494;SDS011;46342;49.046;11.920;2023-02-28T07:25:58;7.15;;;3.92;;
60494;SDS011;46342;49.046;11.920;2023-02-28T07:28:23;5.60;;;3.53;;
60494;SDS011;46342;49.046;11.920;2023-02-28T07:30:49;4.78;;;3.67;;
60494;SDS011;46342;49.046;11.920;2023-02-28T07:33:15;6.28;;;3.97;;
60494;SDS011;46342;49.046;11.920;2023-02-28T07:35:41;6.03;;;4.10;;
60494;SDS011;46342;49.046;11.920;2023-02-28T07:38:07;5.03;;;3.05;;
60494;SDS011;46342;49.046;11.920;2023-02-28T07:40:33;8.15;;;4.32;;
60494;SDS011;46342;49.046;11.920;2023-02-28T07:42:59;4.00;;;3.08;;
60494;SDS011;46342;49.046;11.920;2023-02-28T07:45:26;8.35;;;3.97;;
60494;SDS011;46342;49.046;11.920;2023-02-28T07:47:53;7.07;;;4.03;;
60494;SDS011;46342;49.046;11.920;2023-02-28T07:50:19;6.88;;;4.53;;
60494;SDS011;46342;49.046;11.920;2023-02-28T07:52:45;6.72;;;4.05;;
60494;SDS011;46342;49.046;11.920;2023-02-28T07:55:10;5.93;;;3.90;;
60494;SDS011;46342;49.046;11.920;2023-02-28T07:57:36;5.07;;;3.67;;
60494;SDS011;46342;49.046;11.920;2023-02-28T08:00:05;8.25;;;4.50;;
60494;SDS011;46342;49.046;11.920;2023-02-28T08:02:34;6.40;;;3.97;;
60494;SDS011;46342;49.046;11.920;2023-02-28T08:05:00;5.32;;;3.72;;
60494;SDS011;46342;49.046;11.920;2023-02-28T08:07:26;7.63;;;4.25;;
60494;SDS011;46342;49.046;11.920;2023-02-28T08:09:51;7.65;;;4.65;;
60494;SDS011;46342;49.046;11.920;2023-02-28T08:12:17;7.47;;;4.68;;
60494;SDS011;46342;49.046;11.920;2023-02-28T08:14:42;7.03;;;4.53;;
60494;SDS011;46342;49.046;11.920;2023-02-28T08:17:09;10.07;;;4.63;;
60494;SDS011;46342;49.046;11.920;2023-02-28T08:19:35;6.13;;;4.07;;
60494;SDS011;46342;49.046;11.920;2023-02-28T08:22:00;10.32;;;5.32;;
60494;SDS011;46342;49.046;11.920;2023-02-28T08:24:26;6.90;;;4.53;;
60494;SDS011;46342;49.046;11.920;2023-02-28T08:26:52;8.02;;;5.13;;
60494;SDS011;46342;49.046;11.920;2023-02-28T08:29:17;7.63;;;4.63;;
60494;SDS011;46342;49.046;11.920;2023-02-28T08:31:43;8.80;;;4.93;;
60494;SDS011;46342;49.046;11.920;2023-02-28T08:34:09;8.32;;;5.30;;
60494;SDS011;46342;49.046;11.920;2023-02-28T08:36:36;6.50;;;4.82;;
60494;SDS011;46342;49.046;11.920;2023-02-28T08:39:03;6.95;;;4.25;;
60494;SDS011;46342;49.046;11.920;2023-02-28T08:41:29;6.80;;;5.00;;
60494;SDS011;46342;49.046;11.920;2023-02-28T08:43:54;7.70;;;4.93;;
60494;SDS011;46342;49.046;11.920;2023-02-28T08:46:20;7.57;;;4.90;;
60494;SDS011;46342;49.046;11.920;2023-02-28T08:48:46;9.10;;;4.97;;
60494;SDS011;46342;49.046;11.920;2023-02-28T08:51:15;7.85;;;5.38;;
60494;SDS011;46342;49.046;11.920;2023-02-28T08:53:44;6.53;;;4.63;;
60494;SDS011;46342;49.046;11.920;2023-02-28T08:56:10;9.95;;;6.03;;
60494;SDS011;46342;49.046;11.920;2023-02-28T08:58:37;8.27;;;4.53;;
60494;SDS011;46342;49.046;11.920;2023-02-28T09:01:07;7.22;;;4.32;;
60494;SDS011;46342;49.046;11.920;2023-02-28T09:03:34;10.02;;;5.30;;
60494;SDS011;46342;49.046;11.920;2023-02-28T09:06:00;8.10;;;4.53;;
60494;SDS011;46342;49.046;11.920;2023-02-28T09:08:27;7.90;;;5.00;;
60494;SDS011;46342;49.046;11.920;2023-02-28T09:10:53;7.47;;;4.90;;
60494;SDS011;46342;49.046;11.920;2023-02-28T09:13:20;9.60;;;4.93;;
60494;SDS011;46342;49.046;11.920;2023-02-28T09:15:46;8.02;;;4.80;;
60494;SDS011;46342;49.046;11.920;2023-02-28T09:18:12;11.00;;;5.43;;
60494;SDS011;46342;49.046;11.920;2023-02-28T09:20:38;9.27;;;5.22;;
60494;SDS011;46342;49.046;11.920;2023-02-28T09:23:05;7.60;;;5.15;;
60494;SDS011;46342;49.046;11.920;2023-02-28T09:25:31;6.70;;;4.30;;
60494;SDS011;46342;49.046;11.920;2023-02-28T09:27:57;8.60;;;5.07;;
60494;SDS011;46342;49.046;11.920;2023-02-28T09:30:22;8.98;;;4.72;;
60494;SDS011;46342;49.046;11.920;2023-02-28T09:32:48;7.50;;;4.78;;
60494;SDS011;46342;49.046;11.920;2023-02-28T09:35:23;8.07;;;4.85;;
60494;SDS011;46342;49.046;11.920;2023-02-28T09:37:52;6.78;;;4.55;;
60494;SDS011;46342;49.046;11.920;2023-02-28T09:40:19;6.95;;;4.85;;
60494;SDS011;46342;49.046;11.920;2023-02-28T09:42:47;8.90;;;4.97;;
60494;SDS011;46342;49.046;11.920;2023-02-28T09:45:32;11.45;;;5.88;;
60494;SDS011;46342;49.046;11.920;2023-02-28T09:48:11;10.13;;;5.47;;
60494;SDS011;46342;49.046;11.920;2023-02-28T09:50:41;8.60;;;5.15;;
60494;SDS011;46342;49.046;11.920;2023-02-28T09:55:53;9.35;;;5.78;;
60494;SDS011;46342;49.046;11.920;2023-02-28T09:58:26;10.40;;;5.88;;
60494;SDS011;46342;49.046;11.920;2023-02-28T10:06:54;9.07;;;5.25;;
60494;SDS011;46342;49.046;11.920;2023-02-28T10:09:24;8.68;;;5.65;;
60494;SDS011;46342;49.046;11.920;2023-02-28T10:11:53;10.75;;;5.53;;
60494;SDS011;46342;49.046;11.920;2023-02-28T10:14:26;9.52;;;5.65;;
60494;SDS011;46342;49.046;11.920;2023-02-28T10:16:57;8.55;;;5.20;;
60494;SDS011;46342;49.046;11.920;2023-02-28T10:19:33;10.27;;;5.80;;
60494;SDS011;46342;49.046;11.920;2023-02-28T10:22:08;9.07;;;5.82;;
60494;SDS011;46342;49.046;11.920;2023-02-28T10:24:43;7.05;;;4.60;;
60494;SDS011;46342;49.046;11.920;2023-02-28T10:27:16;10.35;;;6.45;;
60494;SDS011;46342;49.046;11.920;2023-02-28T10:29:43;9.40;;;5.97;;
60494;SDS011;46342;49.046;11.920;2023-02-28T10:32:15;10.38;;;6.90;;
60494;SDS011;46342;49.046;11.920;2023-02-28T10:34:43;8.52;;;5.40;;
60494;SDS011;46342;49.046;11.920;2023-02-28T10:37:10;9.77;;;5.60;;
60494;SDS011;46342;49.046;11.920;2023-02-28T10:39:39;11.48;;;7.20;;
60494;SDS011;46342;49.046;11.920;2023-02-28T10:44:46;9.52;;;6.15;;
60494;SDS011;46342;49.046;11.920;2023-02-28T10:47:16;9.05;;;5.60;;
60494;SDS011;46342;49.046;11.920;2023-02-28T10:49:49;12.10;;;6.10;;
60494;SDS011;46342;49.046;11.920;2023-02-28T10:55:14;7.93;;;5.15;;
60494;SDS011;46342;49.046;11.920;2023-02-28T10:57:44;8.20;;;4.97;;
60494;SDS011;46342;49.046;11.920;2023-02-28T11:00:14;10.70;;;6.53;;
60494;SDS011;46342;49.046;11.920;2023-02-28T11:02:44;9.90;;;6.05;;
60494;SDS011;46342;49.046;11.920;2023-02-28T11:08:12;9.30;;;5.65;;
60494;SDS011;46342;49.046;11.920;2023-02-28T11:10:44;10.18;;;5.55;;
60494;SDS011;46342;49.046;11.920;2023-02-28T11:13:19;10.50;;;6.03;;
60494;SDS011;46342;49.046;11.920;2023-02-28T11:15:52;8.25;;;5.38;;
60494;SDS011;46342;49.046;11.920;2023-02-28T11:18:21;11.63;;;6.22;;
60494;SDS011;46342;49.046;11.920;2023-02-28T11:20:48;11.55;;;6.82;;
60494;SDS011;46342;49.046;11.920;2023-02-28T11:23:16;10.80;;;6.30;;
60494;SDS011;46342;49.046;11.920;2023-02-28T11:25:47;9.45;;;5.28;;
60494;SDS011;46342;49.046;11.920;2023-02-28T11:28:26;12.32;;;5.30;;
60494;SDS011;46342;49.046;11.920;2023-02-28T11:31:04;9.13;;;5.43;;
60494;SDS011;46342;49.046;11.920;2023-02-28T11:33:47;9.90;;;5.50;;
60494;SDS011;46342;49.046;11.920;2023-02-28T11:36:21;10.20;;;6.22;;
60494;SDS011;46342;49.046;11.920;2023-02-28T11:38:54;10.73;;;6.45;;
60494;SDS011;46342;49.046;11.920;2023-02-28T11:44:38;10.80;;;5.97;;
60494;SDS011;46342;49.046;11.920;2023-02-28T11:47:20;8.73;;;5.68;;
60494;SDS011;46342;49.046;11.920;2023-02-28T11:50:36;8.60;;;5.57;;
60494;SDS011;46342;49.046;11.920;2023-02-28T11:53:06;9.43;;;5.80;;
60494;SDS011;46342;49.046;11.920;2023-02-28T11:55:45;9.82;;;5.68;;
60494;SDS011;46342;49.046;11.920;2023-02-28T11:58:38;8.55;;;5.57;;
60494;SDS011;46342;49.046;11.920;2023-02-28T12:09:02;12.35;;;6.55;;
60494;SDS011;46342;49.046;11.920;2023-02-28T12:14:41;12.45;;;5.72;;
60494;SDS011;46342;49.046;11.920;2023-02-28T12:23:10;9.90;;;5.88;;
60494;SDS011;46342;49.046;11.920;2023-02-28T12:28:49;13.63;;;7.50;;
60494;SDS011;46342;49.046;11.920;2023-02-28T12:31:18;11.02;;;6.00;;
60494;SDS011;46342;49.046;11.920;2023-02-28T12:33:50;12.70;;;6.07;;
60494;SDS011;46342;49.046;11.920;2023-02-28T12:36:19;10.25;;;5.50;;
60494;SDS011;46342;49.046;11.920;2023-02-28T12:39:00;10.27;;;6.15;;
60494;SDS011;46342;49.046;11.920;2023-02-28T12:44:28;8.68;;;5.40;;
60494;SDS011;46342;49.046;11.920;2023-02-28T12:47:28;10.68;;;5.40;;
60494;SDS011;46342;49.046;11.920;2023-02-28T12:49:54;11.88;;;7.05;;
60494;SDS011;46342;49.046;11.920;2023-02-28T12:52:47;10.93;;;5.88;;
60494;SDS011;46342;49.046;11.920;2023-02-28T12:55:23;9.95;;;6.05;;
60494;SDS011;46342;49.046;11.920;2023-02-28T12:58:26;8.80;;;5.25;;
60494;SDS011;46342;49.046;11.920;2023-02-28T13:01:04;7.72;;;5.18;;
60494;SDS011;46342;49.046;11.920;2023-02-28T13:09:33;9.90;;;6.20;;
60494;SDS011;46342;49.046;11.920;2023-02-28T13:11:59;9.15;;;5.45;;
60494;SDS011;46342;49.046;11.920;2023-02-28T13:14:28;10.48;;;5.85;;
60494;SDS011;46342;49.046;11.920;2023-02-28T13:19:34;10.50;;;6.45;;
60494;SDS011;46342;49.046;11.920;2023-02-28T13:22:02;10.05;;;5.88;;
60494;SDS011;46342;49.046;11.920;2023-02-28T13:24:40;10.30;;;5.40;;
60494;SDS011;46342;49.046;11.920;2023-02-28T13:27:19;9.63;;;5.68;;
60494;SDS011;46342;49.046;11.920;2023-02-28T13:29:49;12.52;;;5.82;;
60494;SDS011;46342;49.046;11.920;2023-02-28T13:32:20;9.73;;;5.22;;
60494;SDS011;46342;49.046;11.920;2023-02-28T13:39:56;8.57;;;5.00;;
60494;SDS011;46342;49.046;11.920;2023-02-28T13:47:40;8.45;;;5.75;;
60494;SDS011;46342;49.046;11.920;2023-02-28T13:53:26;7.72;;;4.90;;
60494;SDS011;46342;49.046;11.920;2023-02-28T13:58:33;9.13;;;5.30;;
60494;SDS011;46342;49.046;11.920;2023-02-28T14:06:47;9.45;;;5.55;;
60494;SDS011;46342;49.046;11.920;2023-02-28T14:09:18;10.93;;;6.03;;
60494;SDS011;46342;49.046;11.920;2023-02-28T14:15:04;11.20;;;5.40;;
60494;SDS011;46342;49.046;11.920;2023-02-28T14:18:01;6.63;;;4.68;;
60494;SDS011;46342;49.046;11.920;2023-02-28T14:20:31;11.82;;;5.50;;
60494;SDS011;46342;49.046;11.920;2023-02-28T14:23:03;7.43;;;4.32;;
60494;SDS011;46342;49.046;11.920;2023-02-28T14:31:23;6.25;;;4.18;;
60494;SDS011;46342;49.046;11.920;2023-02-28T14:36:49;7.47;;;4.03;;
60494;SDS011;46342;49.046;11.920;2023-02-28T14:39:19;7.30;;;4.20;;
60494;SDS011;46342;49.046;11.920;2023-02-28T14:41:47;6.75;;;4.38;;
60494;SDS011;46342;49.046;11.920;2023-02-28T14:44:15;8.30;;;4.13;;
60494;SDS011;46342;49.046;11.920;2023-02-28T14:46:46;8.85;;;4.68;;
60494;SDS011;46342;49.046;11.920;2023-02-28T14:49:44;6.35;;;4.13;;
60494;SDS011;46342;49.046;11.920;2023-02-28T14:54:40;7.55;;;4.15;;
60494;SDS011;46342;49.046;11.920;2023-02-28T14:57:06;10.80;;;5.90;;
60494;SDS011;46342;49.046;11.920;2023-02-28T14:59:46;5.50;;;4.25;;
60494;SDS011;46342;49.046;11.920;2023-02-28T15:02:22;6.80;;;4.43;;
60494;SDS011;46342;49.046;11.920;2023-02-28T15:04:57;7.15;;;4.45;;
60494;SDS011;46342;49.046;11.920;2023-02-28T15:07:46;6.40;;;4.43;;
60494;SDS011;46342;49.046;11.920;2023-02-28T15:12:39;8.45;;;4.05;;
60494;SDS011;46342;49.046;11.920;2023-02-28T15:15:06;6.60;;;4.35;;
60494;SDS011;46342;49.046;11.920;2023-02-28T15:17:44;7.32;;;4.47;;
60494;SDS011;46342;49.046;11.920;2023-02-28T15:20:14;5.93;;;4.32;;
60494;SDS011;46342;49.046;11.920;2023-02-28T15:22:40;6.75;;;4.10;;
60494;SDS011;46342;49.046;11.920;2023-02-28T15:25:07;5.35;;;4.10;;
60494;SDS011;46342;49.046;11.920;2023-02-28T15:27:39;7.03;;;4.00;;
60494;SDS011;46342;49.046;11.920;2023-02-28T15:30:15;8.10;;;4.40;;
60494;SDS011;46342;49.046;11.920;2023-02-28T15:32:46;6.82;;;3.70;;
60494;SDS011;46342;49.046;11.920;2023-02-28T15:35:29;4.95;;;3.63;;
60494;SDS011;46342;49.046;11.920;2023-02-28T15:45:55;8.23;;;4.80;;
60494;SDS011;46342;49.046;11.920;2023-02-28T15:48:43;7.53;;;4.40;;
60494;SDS011;46342;49.046;11.920;2023-02-28T15:51:22;6.05;;;4.05;;
60494;SDS011;46342;49.046;11.920;2023-02-28T15:54:00;8.00;;;4.97;;
60494;SDS011;46342;49.046;11.920;2023-02-28T15:56:32;7.97;;;4.93;;
60494;SDS011;46342;49.046;11.920;2023-02-28T15:59:01;7.97;;;4.60;;
60494;SDS011;46342;49.046;11.920;2023-02-28T16:01:34;8.25;;;4.90;;
60494;SDS011;46342;49.046;11.920;2023-02-28T16:04:13;9.85;;;5.13;;
60494;SDS011;46342;49.046;11.920;2023-02-28T16:06:44;6.93;;;4.57;;
60494;SDS011;46342;49.046;11.920;2023-02-28T16:09:12;8.90;;;4.75;;
60494;SDS011;46342;49.046;11.920;2023-02-28T16:14:15;8.65;;;4.82;;
60494;SDS011;46342;49.046;11.920;2023-02-28T16:16:46;10.65;;;5.10;;
60494;SDS011;46342;49.046;11.920;2023-02-28T16:19:14;8.10;;;4.90;;
60494;SDS011;46342;49.046;11.920;2023-02-28T16:21:40;12.65;;;5.80;;
60494;SDS011;46342;49.046;11.920;2023-02-28T16:24:06;11.20;;;4.90;;
60494;SDS011;46342;49.046;11.920;2023-02-28T16:26:32;8.98;;;5.40;;
60494;SDS011;46342;49.046;11.920;2023-02-28T16:28:59;9.07;;;5.57;;
60494;SDS011;46342;49.046;11.920;2023-02-28T16:31:25;9.88;;;6.95;;
60494;SDS011;46342;49.046;11.920;2023-02-28T16:33:51;8.60;;;5.72;;
60494;SDS011;46342;49.046;11.920;2023-02-28T16:36:17;8.35;;;4.93;;
60494;SDS011;46342;49.046;11.920;2023-02-28T16:38:45;7.60;;;5.38;;
60494;SDS011;46342;49.046;11.920;2023-02-28T16:41:12;9.25;;;5.82;;
60494;SDS011;46342;49.046;11.920;2023-02-28T16:43:43;9.10;;;5.05;;
60494;SDS011;46342;49.046;11.920;2023-02-28T16:46:10;8.60;;;4.63;;
60494;SDS011;46342;49.046;11.920;2023-02-28T16:48:37;8.60;;;5.22;;
60494;SDS011;46342;49.046;11.920;2023-02-28T16:51:05;8.90;;;5.57;;
60494;SDS011;46342;49.046;11.920;2023-02-28T16:53:33;8.50;;;4.88;;
60494;SDS011;46342;49.046;11.920;2023-02-28T16:55:59;9.25;;;4.85;;
60494;SDS011;46342;49.046;11.920;2023-02-28T16:58:27;9.23;;;5.15;;
60494;SDS011;46342;49.046;11.920;2023-02-28T17:00:52;12.35;;;5.95;;
60494;SDS011;46342;49.046;11.920;2023-02-28T17:03:26;10.27;;;5.90;;
60494;SDS011;46342;49.046;11.920;2023-02-28T17:05:52;9.07;;;5.15;;
60494;SDS011;46342;49.046;11.920;2023-02-28T17:08:18;9.23;;;5.32;;
60494;SDS011;46342;49.046;11.920;2023-02-28T17:10:44;10.07;;;5.30;;
60494;SDS011;46342;49.046;11.920;2023-02-28T17:13:10;13.38;;;6.82;;
60494;SDS011;46342;49.046;11.920;2023-02-28T17:15:35;10.25;;;5.13;;
60494;SDS011;46342;49.046;11.920;2023-02-28T17:18:02;9.20;;;5.88;;
60494;SDS011;46342;49.046;11.920;2023-02-28T17:20:28;10.18;;;6.28;;